AAL242 KLAX-KLAS
Flight info
| Callsign | AAL242 |
|---|---|
| Flight time | 0h 50m |
| Altitude | 23000 |
| Route | ORCKA5 MISEN RNDRZ4 |
| Aircraft | A21N/M-SDE2E3FGHIRWXY/LB1 |
Departure
| Time | 2026-05-04 03:35 |
|---|---|
| Airport | Los Angeles International Airport (KLAX) |
Arrival
| Time | 2026-05-04 04:25 |
|---|---|
| Airport | Harry Reid International Airport (KLAS) |
| Time | Latitude | Longitude | Altitude | Speed | Heading |
|---|---|---|---|---|---|
| 2026-05-04 03:20 | 33.93997 | -118.40185 | 131 ft | 0 kts | 355° |
| 2026-05-04 03:27 | 33.93986 | -118.40184 | 129 ft | 2 kts | 353° |
| 2026-05-04 03:27 | 33.93973 | -118.40182 | 128 ft | 2 kts | 352° |
| 2026-05-04 03:27 | 33.93960 | -118.40180 | 128 ft | 2 kts | 9° |
| 2026-05-04 03:28 | 33.93947 | -118.40186 | 127 ft | 2 kts | 42° |
| 2026-05-04 03:28 | 33.93940 | -118.40199 | 126 ft | 2 kts | 75° |
| 2026-05-04 03:28 | 33.93939 | -118.40203 | 126 ft | 0 kts | 80° |
| 2026-05-04 03:30 | 33.93941 | -118.40188 | 125 ft | 4 kts | 83° |
| 2026-05-04 03:30 | 33.93945 | -118.40142 | 128 ft | 8 kts | 84° |
| 2026-05-04 03:30 | 33.93932 | -118.40068 | 128 ft | 11 kts | 131° |
| 2026-05-04 03:30 | 33.93885 | -118.39978 | 130 ft | 15 kts | 95° |
| 2026-05-04 03:31 | 33.93895 | -118.39841 | 127 ft | 18 kts | 85° |
| 2026-05-04 03:31 | 33.93910 | -118.39677 | 128 ft | 21 kts | 84° |
| 2026-05-04 03:31 | 33.93929 | -118.39493 | 130 ft | 17 kts | 83° |
| 2026-05-04 03:31 | 33.93943 | -118.39353 | 128 ft | 18 kts | 83° |
| 2026-05-04 03:32 | 33.93959 | -118.39201 | 131 ft | 19 kts | 83° |
| 2026-05-04 03:32 | 33.93975 | -118.39038 | 131 ft | 20 kts | 83° |
| 2026-05-04 03:32 | 33.93993 | -118.38865 | 131 ft | 21 kts | 83° |
| 2026-05-04 03:32 | 33.94005 | -118.38745 | 131 ft | 22 kts | 83° |
| 2026-05-04 03:33 | 33.94025 | -118.38556 | 131 ft | 21 kts | 83° |
| 2026-05-04 03:33 | 33.94043 | -118.38375 | 129 ft | 22 kts | 83° |
| 2026-05-04 03:33 | 33.94063 | -118.38184 | 131 ft | 24 kts | 83° |
| 2026-05-04 03:33 | 33.94064 | -118.38034 | 130 ft | 13 kts | 118° |
| 2026-05-04 03:34 | 33.93991 | -118.38033 | 130 ft | 15 kts | 244° |
| 2026-05-04 03:34 | 33.93975 | -118.38152 | 131 ft | 11 kts | 263° |
| 2026-05-04 03:34 | 33.93965 | -118.38249 | 129 ft | 13 kts | 263° |
| 2026-05-04 03:34 | 33.93943 | -118.38477 | 129 ft | 63 kts | 263° |
| 2026-05-04 03:35 | 33.93856 | -118.39333 | 131 ft | 140 kts | 263° |
| 2026-05-04 03:35 | 33.93712 | -118.40729 | 258 ft | 185 kts | 263° |
| 2026-05-04 03:35 | 33.93551 | -118.42266 | 1066 ft | 187 kts | 262° |
| 2026-05-04 03:35 | 33.93369 | -118.43922 | 1656 ft | 215 kts | 263° |
| 2026-05-04 03:36 | 33.93182 | -118.45810 | 2193 ft | 238 kts | 263° |
| 2026-05-04 03:36 | 33.92816 | -118.47793 | 2998 ft | 247 kts | 249° |
| 2026-05-04 03:36 | 33.92163 | -118.49614 | 3953 ft | 234 kts | 246° |
| 2026-05-04 03:36 | 33.91499 | -118.51422 | 4917 ft | 237 kts | 247° |
| 2026-05-04 03:37 | 33.90846 | -118.53249 | 5837 ft | 239 kts | 248° |
| 2026-05-04 03:37 | 33.90164 | -118.55069 | 6788 ft | 240 kts | 239° |
| 2026-05-04 03:37 | 33.89019 | -118.56541 | 7607 ft | 246 kts | 215° |
| 2026-05-04 03:37 | 33.87418 | -118.57290 | 8433 ft | 252 kts | 190° |
| 2026-05-04 03:38 | 33.85654 | -118.57131 | 9276 ft | 260 kts | 165° |
| 2026-05-04 03:38 | 33.84081 | -118.56014 | 10128 ft | 270 kts | 139° |
| 2026-05-04 03:38 | 33.83061 | -118.54097 | 10893 ft | 280 kts | 111° |
| 2026-05-04 03:38 | 33.82882 | -118.51750 | 11642 ft | 290 kts | 82° |
| 2026-05-04 03:39 | 33.83681 | -118.49505 | 12353 ft | 298 kts | 51° |
| 2026-05-04 03:39 | 33.85287 | -118.47916 | 12851 ft | 303 kts | 26° |
| 2026-05-04 03:39 | 33.87224 | -118.46868 | 13035 ft | 312 kts | 21° |
| 2026-05-04 03:39 | 33.89296 | -118.45821 | 13289 ft | 336 kts | 22° |
| 2026-05-04 03:40 | 33.91494 | -118.44591 | 13571 ft | 359 kts | 28° |
| 2026-05-04 03:40 | 33.93540 | -118.42730 | 13853 ft | 380 kts | 46° |
| 2026-05-04 03:40 | 33.95189 | -118.40167 | 14174 ft | 395 kts | 56° |
| 2026-05-04 03:40 | 33.96729 | -118.37395 | 14729 ft | 403 kts | 57° |
| 2026-05-04 03:41 | 33.98298 | -118.34556 | 15344 ft | 409 kts | 56° |
| 2026-05-04 03:41 | 33.99899 | -118.31692 | 15919 ft | 416 kts | 56° |
| 2026-05-04 03:41 | 34.01544 | -118.28771 | 16503 ft | 424 kts | 55° |
| 2026-05-04 03:41 | 34.03215 | -118.25813 | 17076 ft | 430 kts | 55° |
| 2026-05-04 03:42 | 34.04911 | -118.22813 | 17624 ft | 437 kts | 54° |
| 2026-05-04 03:42 | 34.06641 | -118.19749 | 18186 ft | 444 kts | 54° |
| 2026-05-04 03:42 | 34.08395 | -118.16649 | 18672 ft | 451 kts | 54° |
| 2026-05-04 03:42 | 34.10175 | -118.13507 | 19204 ft | 455 kts | 54° |
| 2026-05-04 03:43 | 34.11961 | -118.10347 | 19722 ft | 459 kts | 54° |
| 2026-05-04 03:43 | 34.13773 | -118.07138 | 20252 ft | 464 kts | 54° |
| 2026-05-04 03:43 | 34.15586 | -118.03918 | 20772 ft | 468 kts | 54° |
| 2026-05-04 03:43 | 34.17430 | -118.00642 | 21312 ft | 472 kts | 54° |
| 2026-05-04 03:44 | 34.19283 | -117.97348 | 21872 ft | 476 kts | 54° |
| 2026-05-04 03:44 | 34.21175 | -117.93983 | 22406 ft | 481 kts | 54° |
| 2026-05-04 03:44 | 34.23041 | -117.90658 | 22871 ft | 487 kts | 54° |
| 2026-05-04 03:44 | 34.24913 | -117.87321 | 23012 ft | 478 kts | 54° |
| 2026-05-04 03:45 | 34.26765 | -117.84012 | 23024 ft | 464 kts | 54° |
| 2026-05-04 03:45 | 34.28570 | -117.80790 | 23013 ft | 462 kts | 54° |
| 2026-05-04 03:45 | 34.30370 | -117.77575 | 22977 ft | 462 kts | 54° |
| 2026-05-04 03:45 | 34.32170 | -117.74356 | 22968 ft | 461 kts | 54° |
| 2026-05-04 03:46 | 34.33961 | -117.71150 | 22972 ft | 461 kts | 54° |
| 2026-05-04 03:46 | 34.35797 | -117.67958 | 22973 ft | 461 kts | 52° |
| 2026-05-04 03:46 | 34.37648 | -117.64855 | 22971 ft | 461 kts | 52° |
| 2026-05-04 03:46 | 34.39529 | -117.61711 | 22948 ft | 461 kts | 52° |
| 2026-05-04 03:47 | 34.41404 | -117.58573 | 22952 ft | 460 kts | 52° |
| 2026-05-04 03:47 | 34.43275 | -117.55438 | 22951 ft | 459 kts | 52° |
| 2026-05-04 03:47 | 34.45150 | -117.52292 | 22950 ft | 459 kts | 52° |
| 2026-05-04 03:47 | 34.47014 | -117.49161 | 22955 ft | 459 kts | 52° |
| 2026-05-04 03:48 | 34.48881 | -117.46021 | 22964 ft | 459 kts | 52° |
| 2026-05-04 03:48 | 34.50766 | -117.42845 | 22973 ft | 458 kts | 52° |
| 2026-05-04 03:48 | 34.52627 | -117.39714 | 22978 ft | 458 kts | 52° |
| 2026-05-04 03:48 | 34.54464 | -117.36622 | 22981 ft | 457 kts | 52° |
| 2026-05-04 03:49 | 34.56323 | -117.33486 | 22979 ft | 457 kts | 52° |
| 2026-05-04 03:49 | 34.58202 | -117.30315 | 22981 ft | 457 kts | 52° |
| 2026-05-04 03:49 | 34.60031 | -117.27225 | 22981 ft | 457 kts | 52° |
| 2026-05-04 03:49 | 34.61889 | -117.24083 | 22969 ft | 457 kts | 52° |
| 2026-05-04 03:50 | 34.63740 | -117.20949 | 22950 ft | 457 kts | 52° |
| 2026-05-04 03:50 | 34.65591 | -117.17810 | 22930 ft | 457 kts | 52° |
| 2026-05-04 03:50 | 34.67439 | -117.14675 | 22907 ft | 457 kts | 52° |
| 2026-05-04 03:50 | 34.69290 | -117.11535 | 22895 ft | 457 kts | 52° |
| 2026-05-04 03:51 | 34.71139 | -117.08392 | 22863 ft | 457 kts | 52° |
| 2026-05-04 03:51 | 34.73014 | -117.05203 | 22815 ft | 457 kts | 52° |
| 2026-05-04 03:51 | 34.74836 | -117.02102 | 22817 ft | 457 kts | 52° |
| 2026-05-04 03:51 | 34.76682 | -116.98957 | 22824 ft | 457 kts | 52° |
| 2026-05-04 03:52 | 34.78530 | -116.95808 | 22826 ft | 458 kts | 52° |
| 2026-05-04 03:52 | 34.80382 | -116.92647 | 22821 ft | 458 kts | 53° |
| 2026-05-04 03:52 | 34.82231 | -116.89488 | 22826 ft | 458 kts | 53° |
| 2026-05-04 03:52 | 34.84106 | -116.86283 | 22830 ft | 459 kts | 53° |
| 2026-05-04 03:53 | 34.85959 | -116.83113 | 22834 ft | 459 kts | 53° |
| 2026-05-04 03:53 | 34.87782 | -116.79988 | 22832 ft | 459 kts | 53° |
| 2026-05-04 03:53 | 34.89633 | -116.76814 | 22830 ft | 460 kts | 53° |
| 2026-05-04 03:53 | 34.91510 | -116.73594 | 22831 ft | 460 kts | 53° |
| 2026-05-04 03:54 | 34.93357 | -116.70400 | 22829 ft | 460 kts | 53° |
| 2026-05-04 03:54 | 34.95145 | -116.67234 | 22822 ft | 461 kts | 54° |
| 2026-05-04 03:54 | 34.96960 | -116.64005 | 22816 ft | 461 kts | 54° |
| 2026-05-04 03:54 | 34.98775 | -116.60779 | 22810 ft | 461 kts | 54° |
| 2026-05-04 03:55 | 35.00587 | -116.57562 | 22804 ft | 461 kts | 54° |
| 2026-05-04 03:55 | 35.02403 | -116.54336 | 22802 ft | 461 kts | 54° |
| 2026-05-04 03:55 | 35.04222 | -116.51108 | 22799 ft | 461 kts | 54° |
| 2026-05-04 03:55 | 35.06035 | -116.47885 | 22801 ft | 461 kts | 54° |
| 2026-05-04 03:56 | 35.07852 | -116.44653 | 22798 ft | 462 kts | 54° |
| 2026-05-04 03:56 | 35.09680 | -116.41422 | 22794 ft | 462 kts | 52° |
| 2026-05-04 03:56 | 35.11740 | -116.38425 | 22789 ft | 460 kts | 44° |
| 2026-05-04 03:56 | 35.13929 | -116.35593 | 22790 ft | 459 kts | 43° |
| 2026-05-04 03:57 | 35.16136 | -116.32763 | 22794 ft | 459 kts | 43° |
| 2026-05-04 03:57 | 35.18335 | -116.29934 | 22796 ft | 459 kts | 44° |
| 2026-05-04 03:57 | 35.20525 | -116.27107 | 22792 ft | 459 kts | 44° |
| 2026-05-04 03:57 | 35.22711 | -116.24258 | 22792 ft | 460 kts | 45° |
| 2026-05-04 03:58 | 35.26976 | -116.18426 | 22789 ft | 460 kts | 46° |
| 2026-05-04 03:58 | 35.29110 | -116.15502 | 22786 ft | 460 kts | 46° |
| 2026-05-04 03:58 | 35.31244 | -116.12579 | 22783 ft | 458 kts | 45° |
| 2026-05-04 03:59 | 35.33341 | -116.09702 | 22378 ft | 451 kts | 46° |
| 2026-05-04 03:59 | 35.35429 | -116.06833 | 21777 ft | 449 kts | 46° |
| 2026-05-04 03:59 | 35.37503 | -116.03982 | 21176 ft | 448 kts | 46° |
| 2026-05-04 03:59 | 35.39566 | -116.01144 | 20597 ft | 446 kts | 46° |
| 2026-05-04 04:00 | 35.41624 | -115.98313 | 20040 ft | 442 kts | 47° |
| 2026-05-04 04:00 | 35.43660 | -115.95507 | 19531 ft | 438 kts | 47° |
| 2026-05-04 04:00 | 35.45670 | -115.92733 | 19048 ft | 433 kts | 47° |
| 2026-05-04 04:00 | 35.47656 | -115.89992 | 18579 ft | 427 kts | 47° |
| 2026-05-04 04:01 | 35.49618 | -115.87283 | 18136 ft | 421 kts | 48° |
| 2026-05-04 04:01 | 35.51548 | -115.84618 | 17642 ft | 415 kts | 48° |
| 2026-05-04 04:01 | 35.53450 | -115.81986 | 17181 ft | 408 kts | 49° |
| 2026-05-04 04:01 | 35.55315 | -115.79403 | 16805 ft | 399 kts | 49° |
| 2026-05-04 04:02 | 35.57136 | -115.76881 | 16453 ft | 391 kts | 49° |
| 2026-05-04 04:02 | 35.58924 | -115.74402 | 16051 ft | 385 kts | 49° |
| 2026-05-04 04:02 | 35.60697 | -115.71973 | 15739 ft | 376 kts | 49° |
| 2026-05-04 04:02 | 35.62432 | -115.69640 | 15536 ft | 365 kts | 49° |
| 2026-05-04 04:03 | 35.64119 | -115.67375 | 15368 ft | 353 kts | 49° |
| 2026-05-04 04:03 | 35.65751 | -115.65176 | 15212 ft | 341 kts | 50° |
| 2026-05-04 04:03 | 35.67325 | -115.63049 | 14996 ft | 333 kts | 50° |
| 2026-05-04 04:03 | 35.68880 | -115.60943 | 14766 ft | 333 kts | 50° |
| 2026-05-04 04:04 | 35.70431 | -115.58843 | 14533 ft | 331 kts | 50° |
| 2026-05-04 04:04 | 35.71980 | -115.56752 | 14297 ft | 329 kts | 49° |
| 2026-05-04 04:04 | 35.73719 | -115.54921 | 14111 ft | 330 kts | 34° |
| 2026-05-04 04:04 | 35.75701 | -115.53479 | 13950 ft | 330 kts | 31° |
| 2026-05-04 04:05 | 35.77708 | -115.52109 | 13801 ft | 330 kts | 31° |
| 2026-05-04 04:05 | 35.79712 | -115.50738 | 13646 ft | 328 kts | 31° |
| 2026-05-04 04:05 | 35.81700 | -115.49361 | 13476 ft | 328 kts | 31° |
| 2026-05-04 04:05 | 35.83685 | -115.47978 | 13305 ft | 335 kts | 31° |
| 2026-05-04 04:06 | 35.85815 | -115.46476 | 13173 ft | 364 kts | 31° |
| 2026-05-04 04:06 | 35.88020 | -115.44926 | 13015 ft | 364 kts | 31° |
| 2026-05-04 04:06 | 35.90219 | -115.43387 | 12852 ft | 361 kts | 31° |
| 2026-05-04 04:06 | 35.92413 | -115.41856 | 12624 ft | 363 kts | 31° |
| 2026-05-04 04:07 | 35.94612 | -115.40325 | 12376 ft | 362 kts | 31° |
| 2026-05-04 04:07 | 35.96801 | -115.38800 | 12116 ft | 361 kts | 31° |
| 2026-05-04 04:07 | 35.98919 | -115.37223 | 11863 ft | 359 kts | 38° |
| 2026-05-04 04:07 | 36.00620 | -115.35027 | 11580 ft | 353 kts | 59° |
| 2026-05-04 04:08 | 36.01557 | -115.32284 | 11291 ft | 344 kts | 82° |
| 2026-05-04 04:08 | 36.01637 | -115.29379 | 10992 ft | 334 kts | 99° |
| 2026-05-04 04:08 | 36.01392 | -115.26570 | 10762 ft | 324 kts | 100° |
| 2026-05-04 04:08 | 36.01167 | -115.23854 | 10631 ft | 312 kts | 99° |
| 2026-05-04 04:09 | 36.00988 | -115.21229 | 10481 ft | 301 kts | 98° |
| 2026-05-04 04:09 | 36.00835 | -115.18679 | 10238 ft | 295 kts | 98° |
| 2026-05-04 04:09 | 36.00696 | -115.16175 | 9909 ft | 291 kts | 97° |
| 2026-05-04 04:09 | 36.00564 | -115.13681 | 9555 ft | 289 kts | 97° |
| 2026-05-04 04:10 | 36.00432 | -115.11198 | 9097 ft | 291 kts | 97° |
| 2026-05-04 04:10 | 36.00279 | -115.08742 | 8883 ft | 282 kts | 98° |
| 2026-05-04 04:10 | 36.00130 | -115.06366 | 8726 ft | 272 kts | 97° |
| 2026-05-04 04:10 | 35.99996 | -115.04094 | 8562 ft | 260 kts | 98° |
| 2026-05-04 04:11 | 35.99871 | -115.01881 | 8244 ft | 258 kts | 98° |
| 2026-05-04 04:11 | 35.99750 | -114.99662 | 8045 ft | 258 kts | 98° |
| 2026-05-04 04:11 | 35.99616 | -114.97455 | 7988 ft | 258 kts | 98° |
| 2026-05-04 04:11 | 35.99562 | -114.95219 | 8007 ft | 263 kts | 90° |
| 2026-05-04 04:12 | 35.99713 | -114.92964 | 8018 ft | 263 kts | 88° |
| 2026-05-04 04:12 | 35.99892 | -114.90715 | 8018 ft | 263 kts | 88° |
| 2026-05-04 04:12 | 36.00285 | -114.88503 | 8007 ft | 268 kts | 68° |
| 2026-05-04 04:12 | 36.01310 | -114.86573 | 8021 ft | 272 kts | 54° |
| 2026-05-04 04:13 | 36.02203 | -114.84552 | 8021 ft | 267 kts | 79° |
| 2026-05-04 04:13 | 36.02341 | -114.82300 | 8019 ft | 262 kts | 98° |
| 2026-05-04 04:13 | 36.02170 | -114.80071 | 8017 ft | 260 kts | 101° |
| 2026-05-04 04:13 | 36.01961 | -114.77847 | 8017 ft | 260 kts | 101° |
| 2026-05-04 04:14 | 36.01821 | -114.76381 | 8017 ft | 261 kts | 101° |
| 2026-05-04 04:14 | 36.01358 | -114.74235 | 8000 ft | 258 kts | 118° |
| 2026-05-04 04:14 | 36.00609 | -114.72239 | 7996 ft | 255 kts | 121° |
| 2026-05-04 04:14 | 35.99830 | -114.70274 | 7990 ft | 255 kts | 121° |
| 2026-05-04 04:15 | 35.99048 | -114.68310 | 7991 ft | 254 kts | 121° |
| 2026-05-04 04:15 | 35.98456 | -114.66242 | 7970 ft | 261 kts | 101° |
| 2026-05-04 04:15 | 35.98632 | -114.63999 | 7940 ft | 266 kts | 75° |
| 2026-05-04 04:15 | 35.99562 | -114.62032 | 7585 ft | 270 kts | 47° |
| 2026-05-04 04:16 | 36.01102 | -114.60725 | 7146 ft | 271 kts | 18° |
| 2026-05-04 04:16 | 36.02958 | -114.60437 | 6979 ft | 269 kts | 351° |
| 2026-05-04 04:16 | 36.04687 | -114.61155 | 6917 ft | 262 kts | 322° |
| 2026-05-04 04:16 | 36.05989 | -114.62664 | 6934 ft | 256 kts | 303° |
| 2026-05-04 04:17 | 36.07061 | -114.64411 | 6960 ft | 254 kts | 301° |
| 2026-05-04 04:17 | 36.08089 | -114.66182 | 6960 ft | 253 kts | 301° |
| 2026-05-04 04:17 | 36.09105 | -114.67958 | 6958 ft | 253 kts | 301° |
| 2026-05-04 04:17 | 36.09926 | -114.69847 | 6947 ft | 247 kts | 279° |
| 2026-05-04 04:18 | 36.09972 | -114.71908 | 6956 ft | 238 kts | 252° |
| 2026-05-04 04:18 | 36.09387 | -114.73803 | 6986 ft | 235 kts | 242° |
| 2026-05-04 04:18 | 36.08677 | -114.75618 | 6994 ft | 236 kts | 241° |
| 2026-05-04 04:18 | 36.07950 | -114.77427 | 6934 ft | 231 kts | 241° |
| 2026-05-04 04:19 | 36.07397 | -114.79295 | 6592 ft | 234 kts | 257° |
| 2026-05-04 04:19 | 36.07281 | -114.81267 | 6404 ft | 227 kts | 271° |
| 2026-05-04 04:19 | 36.07376 | -114.83161 | 6247 ft | 215 kts | 266° |
| 2026-05-04 04:19 | 36.07383 | -114.84987 | 6115 ft | 208 kts | 266° |
| 2026-05-04 04:20 | 36.07383 | -114.86721 | 5943 ft | 196 kts | 267° |
| 2026-05-04 04:20 | 36.07383 | -114.88362 | 5725 ft | 187 kts | 266° |
| 2026-05-04 04:20 | 36.07382 | -114.89941 | 5466 ft | 180 kts | 267° |
| 2026-05-04 04:20 | 36.07381 | -114.91428 | 5292 ft | 161 kts | 266° |
| 2026-05-04 04:21 | 36.07381 | -114.92705 | 5071 ft | 143 kts | 266° |
| 2026-05-04 04:21 | 36.07379 | -114.93927 | 4877 ft | 142 kts | 266° |
| 2026-05-04 04:21 | 36.07378 | -114.95146 | 4695 ft | 141 kts | 266° |
| 2026-05-04 04:21 | 36.07377 | -114.96348 | 4523 ft | 139 kts | 266° |
| 2026-05-04 04:22 | 36.07376 | -114.97530 | 4358 ft | 139 kts | 266° |
| 2026-05-04 04:22 | 36.07375 | -114.98724 | 4179 ft | 139 kts | 266° |
| 2026-05-04 04:22 | 36.07374 | -114.99916 | 4002 ft | 139 kts | 267° |
| 2026-05-04 04:22 | 36.07373 | -115.01126 | 3823 ft | 140 kts | 268° |
| 2026-05-04 04:23 | 36.07373 | -115.02302 | 3654 ft | 138 kts | 268° |
| 2026-05-04 04:23 | 36.07372 | -115.03504 | 3480 ft | 138 kts | 268° |
| 2026-05-04 04:23 | 36.07371 | -115.04662 | 3310 ft | 136 kts | 268° |
| 2026-05-04 04:23 | 36.07370 | -115.05841 | 3148 ft | 137 kts | 267° |
| 2026-05-04 04:24 | 36.07369 | -115.07042 | 3004 ft | 139 kts | 267° |
| 2026-05-04 04:24 | 36.07367 | -115.08232 | 2820 ft | 139 kts | 266° |
| 2026-05-04 04:24 | 36.07370 | -115.09412 | 2652 ft | 139 kts | 267° |
| 2026-05-04 04:24 | 36.07365 | -115.10606 | 2473 ft | 139 kts | 268° |
| 2026-05-04 04:25 | 36.07375 | -115.11790 | 2263 ft | 138 kts | 267° |
| 2026-05-04 04:25 | 36.07367 | -115.12973 | 2087 ft | 131 kts | 268° |
| 2026-05-04 04:25 | 36.07364 | -115.13913 | 2104 ft | 74 kts | 269° |
| 2026-05-04 04:25 | 36.07375 | -115.14303 | 2120 ft | 39 kts | 282° |
| 2026-05-04 04:26 | 36.07392 | -115.14384 | 2123 ft | 6 kts | 286° |
| 2026-05-04 04:26 | 36.07419 | -115.14475 | 2126 ft | 18 kts | 297° |
| 2026-05-04 04:26 | 36.07482 | -115.14614 | 2130 ft | 16 kts | 302° |
| 2026-05-04 04:26 | 36.07533 | -115.14650 | 2135 ft | 0 kts | 356° |
| 2026-05-04 04:28 | 36.07534 | -115.14650 | 2135 ft | 1 kts | 356° |